sensor_id;sensor_type;location;lat;lon;timestamp;P1;durP1;ratioP1;P2;durP2;ratioP2
84883;SDS011;75145;49.188;8.122;2024-03-29T00:02:02;7.70;;;4.90;;
84883;SDS011;75145;49.188;8.122;2024-03-29T00:04:27;6.47;;;4.55;;
84883;SDS011;75145;49.188;8.122;2024-03-29T00:06:53;9.20;;;4.90;;
84883;SDS011;75145;49.188;8.122;2024-03-29T00:09:18;5.67;;;4.30;;
84883;SDS011;75145;49.188;8.122;2024-03-29T00:11:43;7.33;;;4.53;;
84883;SDS011;75145;49.188;8.122;2024-03-29T00:14:09;8.53;;;4.63;;
84883;SDS011;75145;49.188;8.122;2024-03-29T00:16:34;10.97;;;5.27;;
84883;SDS011;75145;49.188;8.122;2024-03-29T00:18:59;6.97;;;5.03;;
84883;SDS011;75145;49.188;8.122;2024-03-29T00:21:25;10.88;;;5.38;;
84883;SDS011;75145;49.188;8.122;2024-03-29T00:23:50;8.17;;;5.17;;
84883;SDS011;75145;49.188;8.122;2024-03-29T00:26:16;6.75;;;4.53;;
84883;SDS011;75145;49.188;8.122;2024-03-29T00:28:41;10.80;;;5.35;;
84883;SDS011;75145;49.188;8.122;2024-03-29T00:31:06;11.18;;;4.63;;
84883;SDS011;75145;49.188;8.122;2024-03-29T00:33:32;9.45;;;4.85;;
84883;SDS011;75145;49.188;8.122;2024-03-29T00:35:57;7.50;;;4.80;;
84883;SDS011;75145;49.188;8.122;2024-03-29T00:38:23;9.40;;;5.10;;
84883;SDS011;75145;49.188;8.122;2024-03-29T00:40:48;6.77;;;5.13;;
84883;SDS011;75145;49.188;8.122;2024-03-29T00:43:13;8.70;;;4.70;;
84883;SDS011;75145;49.188;8.122;2024-03-29T00:45:40;9.75;;;4.82;;
84883;SDS011;75145;49.188;8.122;2024-03-29T00:48:05;7.85;;;4.57;;
84883;SDS011;75145;49.188;8.122;2024-03-29T00:50:31;10.52;;;5.18;;
84883;SDS011;75145;49.188;8.122;2024-03-29T00:52:57;7.82;;;4.82;;
84883;SDS011;75145;49.188;8.122;2024-03-29T00:55:22;10.60;;;6.00;;
84883;SDS011;75145;49.188;8.122;2024-03-29T00:57:47;7.97;;;5.00;;
84883;SDS011;75145;49.188;8.122;2024-03-29T01:00:13;7.33;;;4.43;;
84883;SDS011;75145;49.188;8.122;2024-03-29T01:02:38;7.38;;;4.85;;
84883;SDS011;75145;49.188;8.122;2024-03-29T01:05:05;8.60;;;4.97;;
84883;SDS011;75145;49.188;8.122;2024-03-29T01:07:31;5.70;;;3.97;;
84883;SDS011;75145;49.188;8.122;2024-03-29T01:09:56;7.33;;;4.37;;
84883;SDS011;75145;49.188;8.122;2024-03-29T01:12:22;8.73;;;4.57;;
84883;SDS011;75145;49.188;8.122;2024-03-29T01:14:47;7.23;;;4.10;;
84883;SDS011;75145;49.188;8.122;2024-03-29T01:17:12;11.83;;;4.53;;
84883;SDS011;75145;49.188;8.122;2024-03-29T01:19:38;9.47;;;4.50;;
84883;SDS011;75145;49.188;8.122;2024-03-29T01:22:03;9.70;;;4.33;;
84883;SDS011;75145;49.188;8.122;2024-03-29T01:24:29;8.73;;;3.88;;
84883;SDS011;75145;49.188;8.122;2024-03-29T01:26:54;7.10;;;4.03;;
84883;SDS011;75145;49.188;8.122;2024-03-29T01:29:20;8.15;;;3.88;;
84883;SDS011;75145;49.188;8.122;2024-03-29T01:31:45;6.50;;;3.33;;
84883;SDS011;75145;49.188;8.122;2024-03-29T01:34:10;4.97;;;2.93;;
84883;SDS011;75145;49.188;8.122;2024-03-29T01:36:36;7.13;;;3.20;;
84883;SDS011;75145;49.188;8.122;2024-03-29T01:39:01;4.73;;;3.20;;
84883;SDS011;75145;49.188;8.122;2024-03-29T01:41:27;6.38;;;3.40;;
84883;SDS011;75145;49.188;8.122;2024-03-29T01:43:53;6.93;;;3.33;;
84883;SDS011;75145;49.188;8.122;2024-03-29T01:46:19;5.75;;;3.63;;
84883;SDS011;75145;49.188;8.122;2024-03-29T01:48:46;7.40;;;3.20;;
84883;SDS011;75145;49.188;8.122;2024-03-29T01:51:11;7.22;;;2.90;;
84883;SDS011;75145;49.188;8.122;2024-03-29T01:53:39;6.50;;;3.33;;
84883;SDS011;75145;49.188;8.122;2024-03-29T01:56:05;7.13;;;3.00;;
84883;SDS011;75145;49.188;8.122;2024-03-29T01:58:31;6.75;;;3.05;;
84883;SDS011;75145;49.188;8.122;2024-03-29T02:00:58;7.00;;;3.03;;
84883;SDS011;75145;49.188;8.122;2024-03-29T02:03:25;5.05;;;2.67;;
84883;SDS011;75145;49.188;8.122;2024-03-29T02:05:51;4.53;;;2.80;;
84883;SDS011;75145;49.188;8.122;2024-03-29T02:08:17;6.07;;;2.80;;
84883;SDS011;75145;49.188;8.122;2024-03-29T02:10:43;5.13;;;2.90;;
84883;SDS011;75145;49.188;8.122;2024-03-29T02:13:10;5.70;;;2.50;;
84883;SDS011;75145;49.188;8.122;2024-03-29T02:15:36;4.37;;;2.90;;
84883;SDS011;75145;49.188;8.122;2024-03-29T02:18:01;5.80;;;2.70;;
84883;SDS011;75145;49.188;8.122;2024-03-29T02:20:26;5.63;;;2.90;;
84883;SDS011;75145;49.188;8.122;2024-03-29T02:23:11;5.15;;;2.75;;
84883;SDS011;75145;49.188;8.122;2024-03-29T02:25:40;7.68;;;2.95;;
84883;SDS011;75145;49.188;8.122;2024-03-29T02:28:05;5.00;;;2.40;;
84883;SDS011;75145;49.188;8.122;2024-03-29T02:30:31;6.55;;;2.75;;
84883;SDS011;75145;49.188;8.122;2024-03-29T02:32:57;5.68;;;2.88;;
84883;SDS011;75145;49.188;8.122;2024-03-29T02:35:23;3.55;;;2.33;;
84883;SDS011;75145;49.188;8.122;2024-03-29T02:37:48;4.90;;;2.38;;
84883;SDS011;75145;49.188;8.122;2024-03-29T02:40:15;7.95;;;2.85;;
84883;SDS011;75145;49.188;8.122;2024-03-29T02:42:40;4.87;;;2.80;;
84883;SDS011;75145;49.188;8.122;2024-03-29T02:45:05;3.70;;;2.37;;
84883;SDS011;75145;49.188;8.122;2024-03-29T02:47:31;3.15;;;2.70;;
84883;SDS011;75145;49.188;8.122;2024-03-29T02:49:56;3.63;;;2.20;;
84883;SDS011;75145;49.188;8.122;2024-03-29T02:52:22;6.10;;;2.63;;
84883;SDS011;75145;49.188;8.122;2024-03-29T02:54:47;3.67;;;2.22;;
84883;SDS011;75145;49.188;8.122;2024-03-29T02:57:12;4.50;;;2.15;;
84883;SDS011;75145;49.188;8.122;2024-03-29T02:59:39;4.67;;;2.50;;
84883;SDS011;75145;49.188;8.122;2024-03-29T03:02:05;3.35;;;2.08;;
84883;SDS011;75145;49.188;8.122;2024-03-29T03:04:30;4.53;;;2.00;;
84883;SDS011;75145;49.188;8.122;2024-03-29T03:06:55;3.83;;;2.37;;
84883;SDS011;75145;49.188;8.122;2024-03-29T03:09:31;3.38;;;1.92;;
84883;SDS011;75145;49.188;8.122;2024-03-29T03:12:14;2.97;;;2.03;;
84883;SDS011;75145;49.188;8.122;2024-03-29T03:14:41;4.40;;;2.27;;
84883;SDS011;75145;49.188;8.122;2024-03-29T03:17:06;5.13;;;1.67;;
84883;SDS011;75145;49.188;8.122;2024-03-29T03:19:32;6.90;;;2.60;;
84883;SDS011;75145;49.188;8.122;2024-03-29T03:21:57;6.13;;;1.87;;
84883;SDS011;75145;49.188;8.122;2024-03-29T03:24:22;6.37;;;1.97;;
84883;SDS011;75145;49.188;8.122;2024-03-29T03:26:48;4.00;;;1.70;;
84883;SDS011;75145;49.188;8.122;2024-03-29T03:29:13;7.15;;;2.33;;
84883;SDS011;75145;49.188;8.122;2024-03-29T03:31:38;3.73;;;2.10;;
84883;SDS011;75145;49.188;8.122;2024-03-29T03:34:04;4.33;;;2.27;;
84883;SDS011;75145;49.188;8.122;2024-03-29T03:36:29;3.17;;;1.80;;
84883;SDS011;75145;49.188;8.122;2024-03-29T03:38:54;5.63;;;2.37;;
84883;SDS011;75145;49.188;8.122;2024-03-29T03:41:19;7.73;;;2.40;;
84883;SDS011;75145;49.188;8.122;2024-03-29T03:43:45;4.53;;;1.73;;
84883;SDS011;75145;49.188;8.122;2024-03-29T03:46:10;4.33;;;2.00;;
84883;SDS011;75145;49.188;8.122;2024-03-29T03:48:35;3.60;;;2.00;;
84883;SDS011;75145;49.188;8.122;2024-03-29T03:51:01;3.80;;;1.77;;
84883;SDS011;75145;49.188;8.122;2024-03-29T03:53:26;4.13;;;2.00;;
84883;SDS011;75145;49.188;8.122;2024-03-29T03:55:51;6.97;;;2.10;;
84883;SDS011;75145;49.188;8.122;2024-03-29T03:58:17;4.77;;;2.20;;
84883;SDS011;75145;49.188;8.122;2024-03-29T04:00:42;4.33;;;1.97;;
84883;SDS011;75145;49.188;8.122;2024-03-29T04:03:08;3.50;;;1.95;;
84883;SDS011;75145;49.188;8.122;2024-03-29T04:05:36;3.30;;;2.03;;
84883;SDS011;75145;49.188;8.122;2024-03-29T04:08:02;3.90;;;2.10;;
84883;SDS011;75145;49.188;8.122;2024-03-29T04:10:27;5.78;;;2.00;;
84883;SDS011;75145;49.188;8.122;2024-03-29T04:12:53;5.50;;;2.20;;
84883;SDS011;75145;49.188;8.122;2024-03-29T04:15:18;4.37;;;1.90;;
84883;SDS011;75145;49.188;8.122;2024-03-29T04:17:43;2.97;;;1.80;;
84883;SDS011;75145;49.188;8.122;2024-03-29T04:20:09;2.83;;;1.80;;
84883;SDS011;75145;49.188;8.122;2024-03-29T04:22:34;4.97;;;2.10;;
84883;SDS011;75145;49.188;8.122;2024-03-29T04:25:00;5.22;;;2.33;;
84883;SDS011;75145;49.188;8.122;2024-03-29T04:27:26;2.90;;;1.95;;
84883;SDS011;75145;49.188;8.122;2024-03-29T04:29:52;5.68;;;2.00;;
84883;SDS011;75145;49.188;8.122;2024-03-29T04:32:18;5.50;;;2.10;;
84883;SDS011;75145;49.188;8.122;2024-03-29T04:34:46;8.98;;;2.30;;
84883;SDS011;75145;49.188;8.122;2024-03-29T04:37:12;4.40;;;1.83;;
84883;SDS011;75145;49.188;8.122;2024-03-29T04:39:37;4.00;;;1.90;;
84883;SDS011;75145;49.188;8.122;2024-03-29T04:42:02;4.57;;;2.20;;
84883;SDS011;75145;49.188;8.122;2024-03-29T04:44:28;4.72;;;1.88;;
84883;SDS011;75145;49.188;8.122;2024-03-29T04:46:53;6.83;;;2.10;;
84883;SDS011;75145;49.188;8.122;2024-03-29T04:49:19;5.35;;;1.80;;
84883;SDS011;75145;49.188;8.122;2024-03-29T04:51:48;2.90;;;1.65;;
84883;SDS011;75145;49.188;8.122;2024-03-29T04:54:14;5.10;;;1.92;;
84883;SDS011;75145;49.188;8.122;2024-03-29T04:56:41;7.18;;;2.00;;
84883;SDS011;75145;49.188;8.122;2024-03-29T04:59:06;4.10;;;2.05;;
84883;SDS011;75145;49.188;8.122;2024-03-29T05:01:32;3.70;;;1.60;;
84883;SDS011;75145;49.188;8.122;2024-03-29T05:03:59;8.18;;;2.10;;
84883;SDS011;75145;49.188;8.122;2024-03-29T05:06:25;4.73;;;2.10;;
84883;SDS011;75145;49.188;8.122;2024-03-29T05:08:50;9.30;;;3.00;;
84883;SDS011;75145;49.188;8.122;2024-03-29T05:11:16;2.58;;;1.60;;
84883;SDS011;75145;49.188;8.122;2024-03-29T05:13:41;4.22;;;2.53;;
84883;SDS011;75145;49.188;8.122;2024-03-29T05:16:06;4.57;;;1.63;;
84883;SDS011;75145;49.188;8.122;2024-03-29T05:18:31;2.97;;;1.70;;
84883;SDS011;75145;49.188;8.122;2024-03-29T05:20:57;5.50;;;2.70;;
84883;SDS011;75145;49.188;8.122;2024-03-29T05:23:22;6.07;;;1.88;;
84883;SDS011;75145;49.188;8.122;2024-03-29T05:25:48;2.70;;;1.90;;
84883;SDS011;75145;49.188;8.122;2024-03-29T05:28:14;5.10;;;2.22;;
84883;SDS011;75145;49.188;8.122;2024-03-29T05:30:39;5.40;;;2.67;;
84883;SDS011;75145;49.188;8.122;2024-03-29T05:33:05;4.43;;;2.37;;
84883;SDS011;75145;49.188;8.122;2024-03-29T05:35:31;3.50;;;1.95;;
84883;SDS011;75145;49.188;8.122;2024-03-29T05:37:58;3.17;;;1.98;;
84883;SDS011;75145;49.188;8.122;2024-03-29T05:40:23;4.33;;;2.10;;
84883;SDS011;75145;49.188;8.122;2024-03-29T05:42:52;3.47;;;2.05;;
84883;SDS011;75145;49.188;8.122;2024-03-29T05:45:28;4.70;;;2.28;;
84883;SDS011;75145;49.188;8.122;2024-03-29T05:47:55;5.63;;;2.17;;
84883;SDS011;75145;49.188;8.122;2024-03-29T05:50:21;6.25;;;2.88;;
84883;SDS011;75145;49.188;8.122;2024-03-29T05:52:48;4.80;;;2.15;;
84883;SDS011;75145;49.188;8.122;2024-03-29T05:55:13;4.65;;;2.20;;
84883;SDS011;75145;49.188;8.122;2024-03-29T05:57:39;3.80;;;1.93;;
84883;SDS011;75145;49.188;8.122;2024-03-29T06:00:08;4.13;;;2.30;;
84883;SDS011;75145;49.188;8.122;2024-03-29T06:02:36;3.30;;;1.83;;
84883;SDS011;75145;49.188;8.122;2024-03-29T06:05:02;6.55;;;1.90;;
84883;SDS011;75145;49.188;8.122;2024-03-29T06:07:27;2.60;;;1.70;;
84883;SDS011;75145;49.188;8.122;2024-03-29T06:09:56;2.92;;;1.92;;
84883;SDS011;75145;49.188;8.122;2024-03-29T06:12:21;3.07;;;2.17;;
84883;SDS011;75145;49.188;8.122;2024-03-29T06:14:47;5.13;;;1.88;;
84883;SDS011;75145;49.188;8.122;2024-03-29T06:17:31;4.38;;;2.15;;
84883;SDS011;75145;49.188;8.122;2024-03-29T06:19:56;4.07;;;2.17;;
84883;SDS011;75145;49.188;8.122;2024-03-29T06:22:22;3.78;;;2.20;;
84883;SDS011;75145;49.188;8.122;2024-03-29T06:24:55;4.82;;;2.10;;
84883;SDS011;75145;49.188;8.122;2024-03-29T06:27:24;4.70;;;2.20;;
84883;SDS011;75145;49.188;8.122;2024-03-29T06:29:49;3.92;;;1.92;;
84883;SDS011;75145;49.188;8.122;2024-03-29T06:32:15;3.63;;;1.95;;
84883;SDS011;75145;49.188;8.122;2024-03-29T06:34:41;4.97;;;2.13;;
84883;SDS011;75145;49.188;8.122;2024-03-29T06:37:06;6.97;;;1.95;;
84883;SDS011;75145;49.188;8.122;2024-03-29T06:39:32;5.78;;;2.20;;
84883;SDS011;75145;49.188;8.122;2024-03-29T06:41:58;4.57;;;2.13;;
84883;SDS011;75145;49.188;8.122;2024-03-29T06:44:23;3.80;;;1.70;;
84883;SDS011;75145;49.188;8.122;2024-03-29T06:46:48;2.30;;;1.53;;
84883;SDS011;75145;49.188;8.122;2024-03-29T06:49:14;3.15;;;1.80;;
84883;SDS011;75145;49.188;8.122;2024-03-29T06:51:40;3.95;;;2.10;;
84883;SDS011;75145;49.188;8.122;2024-03-29T06:54:05;5.25;;;2.30;;
84883;SDS011;75145;49.188;8.122;2024-03-29T06:56:31;5.45;;;2.30;;
84883;SDS011;75145;49.188;8.122;2024-03-29T06:58:56;3.53;;;2.05;;
84883;SDS011;75145;49.188;8.122;2024-03-29T07:01:22;3.45;;;2.08;;
84883;SDS011;75145;49.188;8.122;2024-03-29T07:03:47;6.73;;;2.37;;
84883;SDS011;75145;49.188;8.122;2024-03-29T07:06:12;2.63;;;1.70;;
84883;SDS011;75145;49.188;8.122;2024-03-29T07:08:38;4.40;;;1.85;;
84883;SDS011;75145;49.188;8.122;2024-03-29T07:11:03;3.33;;;2.08;;
84883;SDS011;75145;49.188;8.122;2024-03-29T07:13:29;2.80;;;1.85;;
84883;SDS011;75145;49.188;8.122;2024-03-29T07:15:58;5.40;;;2.10;;
84883;SDS011;75145;49.188;8.122;2024-03-29T07:18:27;4.43;;;2.10;;
84883;SDS011;75145;49.188;8.122;2024-03-29T07:20:52;4.10;;;2.00;;
84883;SDS011;75145;49.188;8.122;2024-03-29T07:23:18;4.00;;;1.88;;
84883;SDS011;75145;49.188;8.122;2024-03-29T07:25:44;4.82;;;2.03;;
84883;SDS011;75145;49.188;8.122;2024-03-29T07:28:10;4.63;;;2.17;;
84883;SDS011;75145;49.188;8.122;2024-03-29T07:30:39;2.95;;;1.83;;
84883;SDS011;75145;49.188;8.122;2024-03-29T07:33:05;3.55;;;2.22;;
84883;SDS011;75145;49.188;8.122;2024-03-29T07:35:30;3.80;;;2.17;;
84883;SDS011;75145;49.188;8.122;2024-03-29T07:37:55;5.30;;;2.40;;
84883;SDS011;75145;49.188;8.122;2024-03-29T07:40:22;4.28;;;2.10;;
84883;SDS011;75145;49.188;8.122;2024-03-29T07:42:47;4.23;;;2.17;;
84883;SDS011;75145;49.188;8.122;2024-03-29T07:45:12;3.17;;;2.00;;
84883;SDS011;75145;49.188;8.122;2024-03-29T07:47:38;3.53;;;2.00;;
84883;SDS011;75145;49.188;8.122;2024-03-29T07:50:04;3.25;;;1.83;;
84883;SDS011;75145;49.188;8.122;2024-03-29T07:52:31;3.25;;;2.03;;
84883;SDS011;75145;49.188;8.122;2024-03-29T07:54:57;4.45;;;2.10;;
84883;SDS011;75145;49.188;8.122;2024-03-29T07:57:22;3.80;;;2.20;;
84883;SDS011;75145;49.188;8.122;2024-03-29T07:59:50;3.20;;;2.10;;
84883;SDS011;75145;49.188;8.122;2024-03-29T08:02:15;4.20;;;2.45;;
84883;SDS011;75145;49.188;8.122;2024-03-29T08:04:41;6.17;;;2.27;;
84883;SDS011;75145;49.188;8.122;2024-03-29T08:07:08;5.97;;;2.78;;
84883;SDS011;75145;49.188;8.122;2024-03-29T08:09:33;4.15;;;2.58;;
84883;SDS011;75145;49.188;8.122;2024-03-29T08:11:59;6.05;;;2.50;;
84883;SDS011;75145;49.188;8.122;2024-03-29T08:14:24;6.13;;;2.50;;
84883;SDS011;75145;49.188;8.122;2024-03-29T08:16:52;5.72;;;2.60;;
84883;SDS011;75145;49.188;8.122;2024-03-29T08:19:19;5.55;;;2.50;;
84883;SDS011;75145;49.188;8.122;2024-03-29T08:21:44;4.43;;;2.50;;
84883;SDS011;75145;49.188;8.122;2024-03-29T08:24:10;3.72;;;2.60;;
84883;SDS011;75145;49.188;8.122;2024-03-29T08:26:36;6.15;;;2.70;;
84883;SDS011;75145;49.188;8.122;2024-03-29T08:29:02;6.68;;;3.47;;
84883;SDS011;75145;49.188;8.122;2024-03-29T08:31:27;9.98;;;2.90;;
84883;SDS011;75145;49.188;8.122;2024-03-29T08:33:53;5.18;;;2.70;;
84883;SDS011;75145;49.188;8.122;2024-03-29T08:36:19;6.65;;;2.70;;
84883;SDS011;75145;49.188;8.122;2024-03-29T08:38:44;5.28;;;3.28;;
84883;SDS011;75145;49.188;8.122;2024-03-29T08:41:11;5.05;;;2.78;;
84883;SDS011;75145;49.188;8.122;2024-03-29T08:43:37;4.97;;;2.70;;
84883;SDS011;75145;49.188;8.122;2024-03-29T08:46:03;5.32;;;2.90;;
84883;SDS011;75145;49.188;8.122;2024-03-29T08:48:28;7.15;;;3.00;;
84883;SDS011;75145;49.188;8.122;2024-03-29T08:50:54;4.35;;;2.33;;
84883;SDS011;75145;49.188;8.122;2024-03-29T08:53:20;6.88;;;3.17;;
84883;SDS011;75145;49.188;8.122;2024-03-29T08:55:47;4.50;;;2.90;;
84883;SDS011;75145;49.188;8.122;2024-03-29T08:58:15;4.15;;;1.95;;
84883;SDS011;75145;49.188;8.122;2024-03-29T09:00:40;3.47;;;1.98;;
84883;SDS011;75145;49.188;8.122;2024-03-29T09:03:06;4.05;;;2.10;;
84883;SDS011;75145;49.188;8.122;2024-03-29T09:05:31;2.75;;;1.90;;
84883;SDS011;75145;49.188;8.122;2024-03-29T09:07:57;3.35;;;1.70;;
84883;SDS011;75145;49.188;8.122;2024-03-29T09:10:23;5.95;;;2.58;;
84883;SDS011;75145;49.188;8.122;2024-03-29T09:12:49;3.47;;;2.00;;
84883;SDS011;75145;49.188;8.122;2024-03-29T09:15:15;3.53;;;2.08;;
84883;SDS011;75145;49.188;8.122;2024-03-29T09:17:41;3.92;;;2.15;;
84883;SDS011;75145;49.188;8.122;2024-03-29T09:20:10;3.70;;;1.92;;
84883;SDS011;75145;49.188;8.122;2024-03-29T09:22:36;5.05;;;2.28;;
84883;SDS011;75145;49.188;8.122;2024-03-29T09:25:03;3.58;;;2.45;;
84883;SDS011;75145;49.188;8.122;2024-03-29T09:27:29;3.20;;;2.13;;
84883;SDS011;75145;49.188;8.122;2024-03-29T09:29:54;5.37;;;2.03;;
84883;SDS011;75145;49.188;8.122;2024-03-29T09:32:20;3.55;;;2.10;;
84883;SDS011;75145;49.188;8.122;2024-03-29T09:34:47;5.25;;;1.95;;
84883;SDS011;75145;49.188;8.122;2024-03-29T09:37:13;2.80;;;1.73;;
84883;SDS011;75145;49.188;8.122;2024-03-29T09:39:38;4.60;;;1.98;;
84883;SDS011;75145;49.188;8.122;2024-03-29T09:42:03;7.40;;;2.42;;
84883;SDS011;75145;49.188;8.122;2024-03-29T09:44:32;3.97;;;2.08;;
84883;SDS011;75145;49.188;8.122;2024-03-29T09:47:02;3.00;;;2.22;;
84883;SDS011;75145;49.188;8.122;2024-03-29T09:49:28;3.70;;;2.35;;
84883;SDS011;75145;49.188;8.122;2024-03-29T09:51:55;3.10;;;2.00;;
84883;SDS011;75145;49.188;8.122;2024-03-29T09:54:21;3.50;;;2.08;;
84883;SDS011;75145;49.188;8.122;2024-03-29T09:56:47;2.83;;;1.90;;
84883;SDS011;75145;49.188;8.122;2024-03-29T09:59:13;4.55;;;2.20;;
84883;SDS011;75145;49.188;8.122;2024-03-29T10:01:38;4.43;;;2.10;;
84883;SDS011;75145;49.188;8.122;2024-03-29T10:04:04;4.95;;;2.40;;
84883;SDS011;75145;49.188;8.122;2024-03-29T10:06:30;4.68;;;2.10;;
84883;SDS011;75145;49.188;8.122;2024-03-29T10:09:00;3.05;;;2.20;;
84883;SDS011;75145;49.188;8.122;2024-03-29T10:11:25;4.78;;;2.90;;
84883;SDS011;75145;49.188;8.122;2024-03-29T10:13:51;4.25;;;2.22;;
84883;SDS011;75145;49.188;8.122;2024-03-29T10:16:19;4.00;;;2.15;;
84883;SDS011;75145;49.188;8.122;2024-03-29T10:18:49;3.33;;;2.25;;
84883;SDS011;75145;49.188;8.122;2024-03-29T10:21:15;2.97;;;2.13;;
84883;SDS011;75145;49.188;8.122;2024-03-29T10:23:41;3.97;;;2.40;;
84883;SDS011;75145;49.188;8.122;2024-03-29T10:26:08;2.85;;;2.10;;
84883;SDS011;75145;49.188;8.122;2024-03-29T10:28:34;3.80;;;2.47;;
84883;SDS011;75145;49.188;8.122;2024-03-29T10:31:01;3.03;;;1.88;;
84883;SDS011;75145;49.188;8.122;2024-03-29T10:33:30;4.28;;;2.30;;
84883;SDS011;75145;49.188;8.122;2024-03-29T10:35:57;4.00;;;2.22;;
84883;SDS011;75145;49.188;8.122;2024-03-29T10:38:24;3.15;;;2.17;;
84883;SDS011;75145;49.188;8.122;2024-03-29T10:40:51;4.85;;;2.25;;
84883;SDS011;75145;49.188;8.122;2024-03-29T10:43:17;3.20;;;2.03;;
84883;SDS011;75145;49.188;8.122;2024-03-29T10:45:44;5.15;;;2.28;;
84883;SDS011;75145;49.188;8.122;2024-03-29T10:48:11;3.67;;;2.28;;
84883;SDS011;75145;49.188;8.122;2024-03-29T10:50:40;5.18;;;2.20;;
84883;SDS011;75145;49.188;8.122;2024-03-29T10:53:07;4.22;;;2.20;;
84883;SDS011;75145;49.188;8.122;2024-03-29T10:55:34;3.92;;;2.35;;
84883;SDS011;75145;49.188;8.122;2024-03-29T10:58:00;3.97;;;2.20;;
84883;SDS011;75145;49.188;8.122;2024-03-29T11:00:33;4.78;;;2.17;;
84883;SDS011;75145;49.188;8.122;2024-03-29T11:05:48;4.60;;;2.95;;
84883;SDS011;75145;49.188;8.122;2024-03-29T11:08:33;2.65;;;1.92;;
84883;SDS011;75145;49.188;8.122;2024-03-29T11:11:03;3.58;;;2.58;;
84883;SDS011;75145;49.188;8.122;2024-03-29T11:13:47;5.00;;;3.08;;
84883;SDS011;75145;49.188;8.122;2024-03-29T11:16:13;3.83;;;2.28;;
84883;SDS011;75145;49.188;8.122;2024-03-29T11:18:41;3.92;;;2.80;;
84883;SDS011;75145;49.188;8.122;2024-03-29T11:21:07;7.00;;;3.25;;
84883;SDS011;75145;49.188;8.122;2024-03-29T11:23:34;4.10;;;2.70;;
84883;SDS011;75145;49.188;8.122;2024-03-29T11:26:00;4.43;;;2.67;;
84883;SDS011;75145;49.188;8.122;2024-03-29T11:28:30;5.03;;;2.38;;
84883;SDS011;75145;49.188;8.122;2024-03-29T11:31:02;2.80;;;2.30;;
84883;SDS011;75145;49.188;8.122;2024-03-29T11:33:31;3.25;;;2.22;;
84883;SDS011;75145;49.188;8.122;2024-03-29T11:35:58;3.03;;;2.20;;
84883;SDS011;75145;49.188;8.122;2024-03-29T11:38:31;3.55;;;2.67;;
84883;SDS011;75145;49.188;8.122;2024-03-29T11:41:00;4.30;;;2.47;;
84883;SDS011;75145;49.188;8.122;2024-03-29T11:43:27;3.45;;;2.90;;
84883;SDS011;75145;49.188;8.122;2024-03-29T11:45:54;3.35;;;2.40;;
84883;SDS011;75145;49.188;8.122;2024-03-29T11:48:22;7.03;;;3.28;;
84883;SDS011;75145;49.188;8.122;2024-03-29T11:50:50;4.03;;;2.80;;
84883;SDS011;75145;49.188;8.122;2024-03-29T11:53:17;3.25;;;2.58;;
84883;SDS011;75145;49.188;8.122;2024-03-29T11:55:42;5.63;;;3.30;;
84883;SDS011;75145;49.188;8.122;2024-03-29T11:58:07;6.07;;;3.67;;
84883;SDS011;75145;49.188;8.122;2024-03-29T12:00:33;4.80;;;3.03;;
84883;SDS011;75145;49.188;8.122;2024-03-29T12:02:58;4.17;;;3.47;;
84883;SDS011;75145;49.188;8.122;2024-03-29T12:05:23;4.67;;;3.20;;
84883;SDS011;75145;49.188;8.122;2024-03-29T12:07:49;6.80;;;3.63;;
84883;SDS011;75145;49.188;8.122;2024-03-29T12:10:15;4.20;;;3.00;;
84883;SDS011;75145;49.188;8.122;2024-03-29T12:12:40;4.30;;;3.05;;
84883;SDS011;75145;49.188;8.122;2024-03-29T12:15:07;4.22;;;3.42;;
84883;SDS011;75145;49.188;8.122;2024-03-29T12:17:33;5.72;;;3.58;;
84883;SDS011;75145;49.188;8.122;2024-03-29T12:19:59;5.32;;;3.83;;
84883;SDS011;75145;49.188;8.122;2024-03-29T12:22:30;6.05;;;3.63;;
84883;SDS011;75145;49.188;8.122;2024-03-29T12:24:56;5.88;;;3.85;;
84883;SDS011;75145;49.188;8.122;2024-03-29T12:27:22;5.40;;;3.83;;
84883;SDS011;75145;49.188;8.122;2024-03-29T12:29:49;5.05;;;3.38;;
84883;SDS011;75145;49.188;8.122;2024-03-29T12:32:18;5.55;;;3.90;;
84883;SDS011;75145;49.188;8.122;2024-03-29T12:34:44;5.25;;;3.40;;
84883;SDS011;75145;49.188;8.122;2024-03-29T12:37:09;4.40;;;3.35;;
84883;SDS011;75145;49.188;8.122;2024-03-29T12:39:35;4.78;;;3.67;;
84883;SDS011;75145;49.188;8.122;2024-03-29T12:42:04;4.38;;;3.40;;
84883;SDS011;75145;49.188;8.122;2024-03-29T12:44:30;3.90;;;3.08;;
84883;SDS011;75145;49.188;8.122;2024-03-29T12:46:57;3.85;;;3.13;;
84883;SDS011;75145;49.188;8.122;2024-03-29T12:49:24;4.47;;;3.10;;
84883;SDS011;75145;49.188;8.122;2024-03-29T12:51:49;6.07;;;3.55;;
84883;SDS011;75145;49.188;8.122;2024-03-29T12:54:15;5.30;;;3.53;;
84883;SDS011;75145;49.188;8.122;2024-03-29T12:56:40;4.20;;;3.30;;
84883;SDS011;75145;49.188;8.122;2024-03-29T12:59:07;5.07;;;4.00;;
84883;SDS011;75145;49.188;8.122;2024-03-29T13:01:32;6.72;;;4.25;;
84883;SDS011;75145;49.188;8.122;2024-03-29T13:03:58;5.45;;;3.80;;
84883;SDS011;75145;49.188;8.122;2024-03-29T13:06:23;4.77;;;3.70;;
84883;SDS011;75145;49.188;8.122;2024-03-29T13:08:48;5.10;;;3.75;;
84883;SDS011;75145;49.188;8.122;2024-03-29T13:11:14;3.83;;;3.42;;
84883;SDS011;75145;49.188;8.122;2024-03-29T13:13:40;4.32;;;3.28;;
84883;SDS011;75145;49.188;8.122;2024-03-29T13:16:05;3.20;;;2.50;;
84883;SDS011;75145;49.188;8.122;2024-03-29T13:18:31;4.20;;;2.65;;
84883;SDS011;75145;49.188;8.122;2024-03-29T13:20:56;5.25;;;3.55;;
84883;SDS011;75145;49.188;8.122;2024-03-29T13:23:24;5.22;;;3.40;;
84883;SDS011;75145;49.188;8.122;2024-03-29T13:25:50;5.25;;;2.75;;
84883;SDS011;75145;49.188;8.122;2024-03-29T13:28:18;4.03;;;2.80;;
84883;SDS011;75145;49.188;8.122;2024-03-29T13:30:43;4.22;;;2.42;;
84883;SDS011;75145;49.188;8.122;2024-03-29T13:33:10;4.63;;;2.80;;
84883;SDS011;75145;49.188;8.122;2024-03-29T13:35:37;3.67;;;2.60;;
84883;SDS011;75145;49.188;8.122;2024-03-29T13:38:03;4.32;;;2.45;;
84883;SDS011;75145;49.188;8.122;2024-03-29T13:40:29;4.38;;;2.40;;
84883;SDS011;75145;49.188;8.122;2024-03-29T13:42:55;4.38;;;2.70;;
84883;SDS011;75145;49.188;8.122;2024-03-29T13:45:21;3.47;;;2.13;;
84883;SDS011;75145;49.188;8.122;2024-03-29T13:47:46;3.63;;;2.03;;
84883;SDS011;75145;49.188;8.122;2024-03-29T13:50:12;2.90;;;2.17;;
84883;SDS011;75145;49.188;8.122;2024-03-29T13:52:40;3.15;;;2.00;;
84883;SDS011;75145;49.188;8.122;2024-03-29T13:55:06;3.03;;;2.05;;
84883;SDS011;75145;49.188;8.122;2024-03-29T13:57:32;3.05;;;1.90;;
84883;SDS011;75145;49.188;8.122;2024-03-29T14:00:00;4.22;;;1.70;;
84883;SDS011;75145;49.188;8.122;2024-03-29T14:02:25;4.10;;;2.50;;
84883;SDS011;75145;49.188;8.122;2024-03-29T14:04:53;3.22;;;1.60;;
84883;SDS011;75145;49.188;8.122;2024-03-29T14:07:18;3.38;;;1.80;;
84883;SDS011;75145;49.188;8.122;2024-03-29T14:09:44;6.40;;;2.33;;
84883;SDS011;75145;49.188;8.122;2024-03-29T14:12:10;2.72;;;1.85;;
84883;SDS011;75145;49.188;8.122;2024-03-29T14:14:36;2.50;;;2.00;;
84883;SDS011;75145;49.188;8.122;2024-03-29T14:17:02;3.50;;;2.20;;
84883;SDS011;75145;49.188;8.122;2024-03-29T14:19:34;3.30;;;2.40;;
84883;SDS011;75145;49.188;8.122;2024-03-29T14:22:00;3.22;;;2.03;;
84883;SDS011;75145;49.188;8.122;2024-03-29T14:24:26;3.60;;;2.10;;
84883;SDS011;75145;49.188;8.122;2024-03-29T14:26:53;3.08;;;2.45;;
84883;SDS011;75145;49.188;8.122;2024-03-29T14:29:18;4.07;;;2.10;;
84883;SDS011;75145;49.188;8.122;2024-03-29T14:31:47;4.97;;;2.20;;
84883;SDS011;75145;49.188;8.122;2024-03-29T14:34:13;5.25;;;3.67;;
84883;SDS011;75145;49.188;8.122;2024-03-29T14:36:38;3.70;;;2.70;;
84883;SDS011;75145;49.188;8.122;2024-03-29T14:39:03;3.17;;;2.38;;
84883;SDS011;75145;49.188;8.122;2024-03-29T14:41:29;2.93;;;2.30;;
84883;SDS011;75145;49.188;8.122;2024-03-29T14:43:54;4.78;;;2.80;;
84883;SDS011;75145;49.188;8.122;2024-03-29T14:46:21;3.88;;;2.72;;